.
WxDataArchive / Data Records for 2008-03-18
2008-03-17 March 2008 2008-03-19

Data Records for Tuesday, 18 March 2008

Time	Temp	Chill	HIndex	Humid	Dewpt	 Wind 	HiWind	WindDir	Rain 	Barom 
-----	----	-----	------	-----	-----	------	------	-------	-----	----- 
00:00	34.0	34.0	34.0	93	32.2	3	7	112	0.00	30.102 
00:05	34.1	30.5	34.1	93	32.3	4	9	90	0.00	30.089 
00:10	34.1	30.5	34.1	93	32.3	4	6	112	0.00	30.085 
00:15	34.1	34.1	34.1	93	32.3	3	7	90	0.00	30.086 
00:20	34.1	34.1	34.1	92	32.0	3	7	90	0.01	30.085 
00:25	34.1	34.1	34.1	92	32.0	3	7	90	0.00	30.076 
00:30	34.1	34.1	34.1	92	32.0	3	5	112	0.00	30.085 
00:35	34.1	34.1	34.1	92	32.0	3	6	112	0.00	30.079 
00:40	34.1	34.1	34.1	92	32.0	2	5	112	0.00	30.074 
00:45	34.1	34.1	34.1	92	32.0	3	6	90	0.00	30.064 
00:50	34.1	34.1	34.1	92	32.0	3	6	112	0.00	30.055 
00:55	34.1	34.1	34.1	92	32.0	3	5	90	0.00	30.053 
01:00	34.1	34.1	34.1	92	32.0	3	9	112	0.00	30.040 
01:05	34.1	30.5	34.1	92	32.0	4	7	112	0.00	30.043 
01:10	34.3	34.3	34.3	92	32.2	2	4	112	0.00	30.042 
01:15	34.4	34.4	34.4	92	32.3	3	6	112	0.00	30.040 
01:20	34.6	34.6	34.6	92	32.5	3	5	90	0.00	30.031 
01:25	34.7	34.7	34.7	92	32.6	2	5	112	0.00	30.037 
01:30	34.7	34.7	34.7	92	32.6	3	6	112	0.00	30.033 
01:35	34.7	34.7	34.7	92	32.6	3	6	112	0.00	30.034 
01:40	34.9	34.9	34.9	92	32.8	3	7	112	0.00	30.027 
01:45	34.9	34.9	34.9	91	32.5	2	4	90	0.00	30.037 
01:50	35.0	35.0	35.0	91	32.6	2	6	112	0.00	30.034 
01:55	35.0	35.0	35.0	91	32.6	2	5	112	0.00	30.036 
02:00	35.0	35.0	35.0	91	32.6	1	3	90	0.00	30.036 
02:05	35.0	35.0	35.0	91	32.6	1	4	90	0.00	30.037 
02:10	34.9	34.9	34.9	91	32.5	2	4	90	0.00	30.039 
02:15	34.9	34.9	34.9	92	32.8	2	5	90	0.00	30.037 
02:20	35.0	35.0	35.0	92	32.9	2	5	112	0.00	30.035 
02:25	35.0	35.0	35.0	92	32.9	2	5	90	0.00	30.035 
02:30	35.2	35.2	35.2	92	33.1	2	5	112	0.00	30.022 
02:35	35.3	35.3	35.3	91	32.9	3	7	90	0.00	30.021 
02:40	35.5	35.5	35.5	91	33.1	3	6	112	0.00	30.018 
02:45	35.5	35.5	35.5	90	32.9	1	4	112	0.00	30.016 
02:50	35.6	35.6	35.6	90	33.0	2	5	112	0.00	30.009 
02:55	35.8	35.8	35.8	90	33.2	2	5	90	0.00	30.006 
03:00	35.9	35.9	35.9	89	33.0	2	5	112	0.00	30.003 
03:05	36.0	36.0	36.0	88	32.8	2	6	112	0.00	30.002 
03:10	36.0	36.0	36.0	88	32.8	2	5	112	0.01	30.000 
03:15	36.0	36.0	36.0	88	32.8	1	3	90	0.00	30.000 
03:20	36.0	36.0	36.0	88	32.8	2	5	90	0.00	29.994 
03:25	36.0	36.0	36.0	88	32.8	1	4	90	0.00	29.991 
03:30	36.0	36.0	36.0	88	32.8	1	3	112	0.00	29.987 
03:35	36.2	36.2	36.2	88	33.0	1	3	90	0.00	29.987 
03:40	36.3	36.3	36.3	88	33.1	1	3	112	0.00	29.985 
03:45	36.5	36.5	36.5	88	33.3	1	3	112	0.00	29.979 
03:50	36.8	36.8	36.8	87	33.3	2	4	112	0.00	29.976 
03:55	36.9	36.9	36.9	86	33.1	2	4	90	0.00	29.971 
04:00	37.0	37.0	37.0	85	32.9	2	5	90	0.00	29.969 
04:05	37.2	37.2	37.2	84	32.8	2	4	90	0.00	29.960 
04:10	37.3	37.3	37.3	84	32.9	3	7	90	0.00	29.957 
04:15	37.3	37.3	37.3	84	32.9	2	6	90	0.00	29.956 
04:20	37.5	37.5	37.5	84	33.1	2	5	112	0.00	29.956 
04:25	37.5	37.5	37.5	84	33.1	2	7	90	0.00	29.957 
04:30	37.6	37.6	37.6	84	33.2	1	3	90	0.00	29.959 
04:35	37.6	37.6	37.6	84	33.2	1	3	112	0.00	29.958 
04:40	37.6	37.6	37.6	84	33.2	2	5	112	0.00	29.955 
04:45	37.8	37.8	37.8	84	33.4	2	5	90	0.00	29.957 
04:50	37.9	37.9	37.9	84	33.5	1	5	112	0.00	29.960 
04:55	37.9	37.9	37.9	84	33.5	1	3	112	0.00	29.960 
05:00	37.9	37.9	37.9	84	33.5	1	4	135	0.00	29.958 
05:05	37.9	37.9	37.9	84	33.5	2	4	90	0.00	29.958 
05:10	37.9	37.9	37.9	85	33.8	1	4	90	0.00	29.954 
05:15	37.9	37.9	37.9	85	33.8	2	5	90	0.00	29.953 
05:20	37.9	37.9	37.9	85	33.8	3	7	112	0.01	29.945 
05:25	37.9	37.9	37.9	86	34.1	2	4	112	0.00	29.943 
05:30	37.9	37.9	37.9	87	34.4	1	4	90	0.00	29.942 
05:35	37.9	37.9	37.9	87	34.4	1	3	90	0.00	29.939 
05:40	37.9	37.9	37.9	88	34.7	1	3	90	0.00	29.936 
05:45	37.9	37.9	37.9	88	34.7	1	3	112	0.00	29.941 
05:50	37.9	37.9	37.9	88	34.7	2	4	112	0.00	29.939 
05:55	37.9	37.9	37.9	89	35.0	2	5	90	0.01	29.937 
06:00	37.9	37.9	37.9	89	35.0	3	5	112	0.00	29.934 
06:05	37.9	37.9	37.9	89	35.0	2	3	112	0.00	29.936 
06:10	37.9	37.9	37.9	90	35.2	1	3	135	0.00	29.931 
06:15	37.9	37.9	37.9	90	35.2	1	3	90	0.01	29.929 
06:20	38.0	38.0	38.0	91	35.6	1	3	90	0.00	29.928 
06:25	38.0	38.0	38.0	91	35.6	1	4	90	0.00	29.928 
06:30	38.2	38.2	38.2	91	35.8	1	4	112	0.00	29.929 
06:35	38.3	38.3	38.3	91	35.9	1	3	112	0.00	29.928 
06:40	38.5	38.5	38.5	91	36.1	1	3	90	0.00	29.928 
06:45	38.5	38.5	38.5	91	36.1	0	1	90	0.00	29.927 
06:50	38.5	38.5	38.5	91	36.1	1	3	90	0.00	29.928 
06:55	38.6	38.6	38.6	91	36.2	1	3	90	0.00	29.926 
07:00	38.6	38.6	38.6	91	36.2	1	2	112	0.00	29.923 
07:05	38.8	38.8	38.8	92	36.7	0	3	112	0.00	29.918 
07:10	38.8	38.8	38.8	92	36.7	1	2	112	0.00	29.911 
07:15	38.9	38.9	38.9	92	36.8	1	3	112	0.00	29.910 
07:20	38.9	38.9	38.9	92	36.8	1	4	90	0.00	29.915 
07:25	39.1	39.1	39.1	92	37.0	1	3	90	0.00	29.920 
07:30	39.1	39.1	39.1	92	37.0	1	3	90	0.00	29.917 
07:35	39.2	39.2	39.2	92	37.1	1	4	112	0.00	29.911 
07:40	39.2	39.2	39.2	92	37.1	1	3	112	0.00	29.908 
07:45	39.3	39.3	39.3	92	37.2	1	3	112	0.00	29.907 
07:50	39.3	39.3	39.3	93	37.4	1	5	112	0.00	29.900 
07:55	39.3	39.3	39.3	93	37.4	0	1	112	0.00	29.907 
08:00	39.6	39.6	39.6	93	37.7	1	3	112	0.00	29.883 
08:05	39.8	39.8	39.8	93	37.9	0	3	112	0.00	29.885 
08:10	39.9	39.9	39.9	94	38.3	0	2	112	0.00	29.867 
08:15	40.2	40.2	40.2	94	38.6	0	2	135	0.00	29.877 
08:20	40.5	40.5	40.5	94	38.9	0	2	135	0.00	29.877 
08:25	40.8	40.8	40.8	94	39.2	0	2	135	0.00	29.875 
08:30	41.1	41.1	41.1	95	39.8	1	4	135	0.00	29.863 
08:35	41.3	41.3	41.3	95	40.0	1	3	112	0.00	29.860 
08:40	41.6	41.6	41.6	95	40.3	1	3	112	0.00	29.859 
08:45	41.9	41.9	41.9	95	40.6	1	2	112	0.00	29.858 
08:50	42.2	42.2	42.2	95	40.9	1	2	112	0.00	29.858 
08:55	42.5	42.5	42.5	95	41.2	0	4	112	0.00	29.856 
09:00	42.8	42.8	42.8	95	41.5	1	3	112	0.00	29.855 
09:05	43.1	43.1	43.1	95	41.8	1	2	112	0.00	29.852 
09:10	43.2	43.2	43.2	95	41.9	1	4	112	0.00	29.852 
09:15	43.5	43.5	43.5	95	42.2	1	3	135	0.00	29.852 
09:20	43.9	43.9	43.9	96	42.8	1	3	112	0.00	29.851 
09:25	44.3	44.3	44.3	96	43.2	1	5	90	0.00	29.851 
09:30	44.9	44.9	44.9	96	43.8	1	4	112	0.00	29.850 
09:35	45.8	45.8	45.8	96	44.7	1	6	112	0.00	29.848 
09:40	46.4	46.4	46.4	96	45.3	2	4	112	0.00	29.851 
09:45	46.7	46.7	46.7	96	45.6	2	4	90	0.01	29.849 
09:50	47.0	47.0	47.0	95	45.6	1	4	112	0.00	29.846 
09:55	47.1	47.1	47.1	95	45.7	2	5	112	0.00	29.851 
10:00	47.3	47.3	47.3	94	45.7	1	5	45	0.00	29.855 
10:05	47.3	47.3	47.3	94	45.7	2	12	90	0.00	29.853 
10:10	47.4	47.4	47.4	93	45.5	2	9	225	0.00	29.852 
10:15	47.6	47.6	47.6	93	45.7	2	7	68	0.00	29.847 
10:20	47.6	47.6	47.6	92	45.4	1	6	68	0.00	29.847 
10:25	47.7	47.7	47.7	92	45.5	1	5	270	0.00	29.849 
10:30	47.9	47.9	47.9	92	45.7	1	6	0	0.00	29.848 
10:35	47.9	47.9	47.9	93	46.0	2	6	90	0.00	29.845 
10:40	47.9	47.9	47.9	93	46.0	1	4	68	0.00	29.839 
10:45	47.9	47.9	47.9	93	46.0	1	5	248	0.00	29.837 
10:50	47.9	47.9	47.9	93	46.0	2	6	270	0.00	29.834 
10:55	48.0	48.0	48.0	92	45.8	2	7	248	0.00	29.835 
11:00	48.0	48.0	48.0	92	45.8	1	7	248	0.00	29.832 
11:05	48.0	48.0	48.0	92	45.8	2	9	112	0.00	29.831 
11:10	48.0	48.0	48.0	92	45.8	1	5	225	0.00	29.829 
11:15	48.0	48.0	48.0	92	45.8	1	9	90	0.00	29.831 
11:20	48.2	48.2	48.2	92	46.0	2	4	90	0.00	29.834 
11:25	48.2	48.2	48.2	92	46.0	1	4	270	0.00	29.832 
11:30	48.2	48.2	48.2	92	46.0	1	4	292	0.00	29.832 
11:35	48.3	48.3	48.3	92	46.1	1	4	292	0.00	29.825 
11:40	48.6	48.6	48.6	92	46.4	1	5	292	0.00	29.823 
11:45	48.8	48.8	48.8	92	46.6	1	4	90	0.00	29.817 
11:50	49.1	49.1	49.1	92	46.9	1	2	90	0.00	29.812 
11:55	49.2	49.2	49.2	92	47.0	1	4	112	0.00	29.808 
12:00	49.5	49.5	49.5	92	47.3	1	3	90	0.00	29.804 
12:05	49.8	49.8	49.8	92	47.6	1	4	90	0.00	29.802 
12:10	49.9	49.9	49.9	91	47.4	1	5	90	0.00	29.797 
12:15	50.1	50.1	50.1	91	47.6	1	6	225	0.00	29.794 
12:20	50.2	50.2	50.2	91	47.7	1	3	270	0.00	29.791 
12:25	50.4	50.4	50.4	91	47.9	2	7	112	0.00	29.789 
12:30	50.4	50.4	50.4	91	47.9	2	5	112	0.00	29.789 
12:35	50.7	50.7	50.7	91	48.2	1	5	90	0.00	29.791 
12:40	50.8	50.8	50.8	91	48.3	1	4	270	0.00	29.789 
12:45	51.1	51.1	51.1	91	48.6	1	4	112	0.00	29.787 
12:50	51.3	51.3	51.3	91	48.8	1	3	248	0.00	29.787 
12:55	51.6	51.6	51.6	91	49.1	1	4	248	0.00	29.787 
13:00	51.6	51.6	51.6	91	49.1	1	3	248	0.00	29.785 
13:05	51.6	51.6	51.6	91	49.1	1	4	225	0.00	29.782 
13:10	51.7	51.7	51.7	91	49.2	2	4	248	0.00	29.778 
13:15	51.9	51.9	51.9	91	49.4	1	4	248	0.00	29.777 
13:20	52.0	52.0	52.0	91	49.5	1	4	248	0.00	29.773 
13:25	52.2	52.2	52.2	91	49.7	1	4	248	0.00	29.770 
13:30	52.5	52.5	52.5	91	49.9	2	7	248	0.00	29.766 
13:35	52.8	52.8	52.8	90	49.9	1	5	248	0.00	29.762 
13:40	53.1	53.1	53.1	90	50.2	2	7	225	0.00	29.755 
13:45	53.2	53.2	53.2	90	50.3	1	5	225	0.00	29.750 
13:50	53.3	53.3	53.3	90	50.4	1	5	248	0.00	29.745 
13:55	53.6	53.6	53.6	89	50.4	2	5	248	0.00	29.744 
14:00	53.9	53.9	53.9	89	50.7	2	5	248	0.00	29.742 
14:05	54.1	54.1	54.1	89	50.9	2	4	248	0.00	29.738 
14:10	54.2	54.2	54.2	89	51.0	1	6	292	0.00	29.736 
14:15	54.2	54.2	54.2	88	50.7	2	5	248	0.00	29.732 
14:20	54.2	54.2	54.2	88	50.7	2	5	248	0.00	29.723 
14:25	54.4	54.4	54.4	89	51.2	2	5	270	0.00	29.720 
14:30	54.5	54.5	54.5	89	51.3	2	5	248	0.00	29.720 
14:35	54.7	54.7	54.7	89	51.5	2	6	248	0.00	29.719 
14:40	55.0	55.0	55.0	89	51.8	3	9	248	0.00	29.717 
14:45	55.3	55.3	55.3	88	51.8	2	7	248	0.00	29.711 
14:50	55.6	55.6	55.6	88	52.1	4	12	248	0.00	29.706 
14:55	55.6	55.6	55.6	88	52.1	2	5	270	0.00	29.704 
15:00	55.6	55.6	55.6	88	52.1	2	5	248	0.00	29.704 
15:05	55.7	55.7	55.7	88	52.2	3	6	248	0.00	29.708 
15:10	55.7	55.7	55.7	88	52.2	4	12	225	0.00	29.711 
15:15	55.9	55.9	55.9	88	52.4	4	10	270	0.00	29.714 
15:20	56.0	56.0	56.0	88	52.5	3	6	248	0.00	29.717 
15:25	56.0	56.0	56.0	88	52.5	3	10	248	0.00	29.718 
15:30	56.0	56.0	56.0	88	52.5	4	9	248	0.00	29.720 
15:35	56.0	56.0	56.0	88	52.5	3	7	248	0.00	29.723 
15:40	56.0	56.0	56.0	88	52.5	3	6	248	0.00	29.730 
15:45	56.0	56.0	56.0	88	52.5	3	7	248	0.00	29.732 
15:50	56.0	56.0	56.0	88	52.5	3	10	248	0.00	29.733 
15:55	56.0	56.0	56.0	88	52.5	3	9	248	0.00	29.733 
16:00	56.0	56.0	56.0	88	52.5	3	9	248	0.00	29.733 
16:05	56.0	56.0	56.0	88	52.5	3	10	248	0.00	29.730 
16:10	56.0	56.0	56.0	88	52.5	4	12	248	0.00	29.726 
16:15	56.0	56.0	56.0	88	52.5	3	7	248	0.00	29.726 
16:20	56.0	56.0	56.0	88	52.5	4	10	248	0.00	29.727 
16:25	56.2	56.2	56.2	88	52.7	3	10	248	0.00	29.728 
16:30	56.0	56.0	56.0	88	52.5	3	7	248	0.00	29.722 
16:35	56.0	56.0	56.0	89	52.8	3	9	248	0.00	29.720 
16:40	56.0	56.0	56.0	89	52.8	3	7	248	0.00	29.717 
16:45	55.9	55.9	55.9	89	52.7	2	6	248	0.00	29.713 
16:50	55.7	55.7	55.7	89	52.5	3	9	248	0.00	29.713 
16:55	55.7	55.7	55.7	89	52.5	2	6	248	0.00	29.715 
17:00	55.7	55.7	55.7	90	52.8	2	5	248	0.00	29.715 
17:05	55.6	55.6	55.6	90	52.7	2	7	248	0.00	29.715 
17:10	55.6	55.6	55.6	90	52.7	2	4	248	0.00	29.714 
17:15	55.4	55.4	55.4	90	52.5	1	6	248	0.00	29.716 
17:20	55.3	55.3	55.3	90	52.4	2	5	248	0.00	29.714 
17:25	55.3	55.3	55.3	91	52.7	3	5	248	0.00	29.715 
17:30	55.1	55.1	55.1	91	52.5	2	5	248	0.00	29.715 
17:35	55.1	55.1	55.1	91	52.5	1	3	248	0.00	29.715 
17:40	55.0	55.0	55.0	91	52.4	1	7	248	0.00	29.715 
17:45	55.0	55.0	55.0	91	52.4	1	4	248	0.00	29.715 
17:50	54.8	54.8	54.8	91	52.2	1	2	248	0.00	29.712 
17:55	54.8	54.8	54.8	92	52.5	1	3	248	0.00	29.713 
18:00	54.7	54.7	54.7	92	52.4	1	4	248	0.00	29.714 
18:05	54.7	54.7	54.7	92	52.4	1	4	248	0.00	29.714 
18:10	54.5	54.5	54.5	92	52.2	0	2	248	0.00	29.717 
18:15	54.4	54.4	54.4	93	52.4	0	1	248	0.00	29.720 
18:20	54.4	54.4	54.4	93	52.4	0	2	248	0.00	29.721 
18:25	54.2	54.2	54.2	93	52.2	0	2	248	0.00	29.720 
18:30	54.1	54.1	54.1	94	52.4	0	1	248	0.00	29.718 
18:35	54.1	54.1	54.1	94	52.4	0	2	248	0.00	29.718 
18:40	53.9	53.9	53.9	94	52.2	0	1	248	0.00	29.718 
18:45	53.8	53.8	53.8	94	52.1	0	0	---	0.00	29.718 
18:50	53.8	53.8	53.8	95	52.4	0	1	248	0.00	29.715 
18:55	53.6	53.6	53.6	95	52.2	0	0	---	0.00	29.717 
19:00	53.6	53.6	53.6	95	52.2	0	0	---	0.00	29.717 
19:05	53.5	53.5	53.5	95	52.1	0	0	---	0.00	29.716 
19:10	53.3	53.3	53.3	95	51.9	0	0	---	0.00	29.716 
19:15	53.3	53.3	53.3	95	51.9	0	0	---	0.00	29.718 
19:20	53.2	53.2	53.2	95	51.8	0	0	---	0.00	29.718 
19:25	53.2	53.2	53.2	95	51.8	0	0	---	0.00	29.717 
19:30	53.1	53.1	53.1	95	51.7	0	0	---	0.01	29.715 
19:35	52.9	52.9	52.9	95	51.5	0	0	---	0.00	29.714 
19:40	52.9	52.9	52.9	96	51.8	0	0	---	0.00	29.715 
19:45	52.9	52.9	52.9	96	51.8	0	0	---	0.00	29.715 
19:50	52.8	52.8	52.8	96	51.7	0	0	---	0.00	29.714 
19:55	52.8	52.8	52.8	96	51.7	0	0	---	0.00	29.712 
20:00	52.6	52.6	52.6	96	51.5	0	0	---	0.01	29.706 
20:05	52.6	52.6	52.6	96	51.5	0	0	---	0.00	29.699 
20:10	52.6	52.6	52.6	96	51.5	0	1	248	0.00	29.699 
20:15	52.5	52.5	52.5	96	51.4	0	0	---	0.01	29.699 
20:20	52.3	52.3	52.3	96	51.2	0	0	---	0.00	29.703 
20:25	52.2	52.2	52.2	96	51.1	0	0	---	0.00	29.701 
20:30	52.2	52.2	52.2	96	51.1	0	1	248	0.00	29.701 
20:35	52.0	52.0	52.0	96	50.9	0	0	---	0.00	29.700 
20:40	52.0	52.0	52.0	96	50.9	0	0	---	0.01	29.700 
20:45	52.0	52.0	52.0	96	50.9	0	0	---	0.00	29.700 
20:50	51.9	51.9	51.9	96	50.8	0	1	248	0.00	29.700 
20:55	52.0	52.0	52.0	96	50.9	0	0	---	0.01	29.700 
21:00	52.0	52.0	52.0	96	50.9	0	0	---	0.00	29.699 
21:05	51.9	51.9	51.9	96	50.8	0	0	---	0.01	29.692 
21:10	51.9	51.9	51.9	96	50.8	0	0	---	0.00	29.688 
21:15	51.6	51.6	51.6	96	50.5	0	0	---	0.01	29.686 
21:20	51.6	51.6	51.6	96	50.5	0	0	---	0.00	29.685 
21:25	51.6	51.6	51.6	96	50.5	0	0	---	0.01	29.683 
21:30	51.6	51.6	51.6	96	50.5	0	0	---	0.00	29.681 
21:35	51.6	51.6	51.6	97	50.8	0	1	248	0.01	29.681 
21:40	51.7	51.7	51.7	97	50.9	0	1	248	0.00	29.679 
21:45	51.9	51.9	51.9	97	51.1	0	1	248	0.01	29.678 
21:50	51.7	51.7	51.7	97	50.9	0	0	---	0.00	29.678 
21:55	51.7	51.7	51.7	97	50.9	0	0	---	0.00	29.675 
22:00	51.7	51.7	51.7	97	50.9	0	0	---	0.01	29.680 
22:05	51.6	51.6	51.6	97	50.8	0	0	---	0.00	29.679 
22:10	51.6	51.6	51.6	97	50.8	0	0	---	0.01	29.679 
22:15	51.6	51.6	51.6	97	50.8	0	0	---	0.00	29.676 
22:20	51.6	51.6	51.6	97	50.8	0	0	---	0.02	29.675 
22:25	51.6	51.6	51.6	97	50.8	0	1	248	0.01	29.672 
22:30	51.4	51.4	51.4	97	50.6	0	1	248	0.01	29.666 
22:35	51.0	51.0	51.0	97	50.2	0	3	45	0.01	29.666 
22:40	50.5	50.5	50.5	97	49.7	0	1	45	0.00	29.665 
22:45	50.2	50.2	50.2	97	49.4	0	1	45	0.01	29.665 
22:50	49.9	49.9	49.9	97	49.1	0	1	45	0.00	29.665 
22:55	49.6	49.6	49.6	96	48.5	0	2	45	0.00	29.668 
23:00	49.4	49.4	49.4	97	48.6	1	3	270	0.00	29.668 
23:05	49.1	49.1	49.1	97	48.3	0	2	315	0.01	29.668 
23:10	48.9	48.9	48.9	96	47.8	1	4	315	0.01	29.668 
23:15	48.5	48.5	48.5	96	47.4	1	4	292	0.00	29.669 
23:20	48.2	48.2	48.2	96	47.1	0	2	292	0.01	29.670 
23:25	48.0	48.0	48.0	96	46.9	0	2	292	0.01	29.665 
23:30	47.7	47.7	47.7	96	46.6	1	4	315	0.01	29.668 
23:35	47.4	47.4	47.4	96	46.3	1	4	315	0.00	29.671 
23:40	47.0	47.0	47.0	96	45.9	1	5	270	0.01	29.674 
23:45	46.4	46.4	46.4	96	45.3	1	5	0	0.01	29.675 
23:50	46.1	46.1	46.1	96	45.0	1	5	292	0.01	29.674 
23:55	45.8	45.8	45.8	96	44.7	1	5	315	0.01	29.671 

CoCoRaHS
IN-AL-39
A2 Web Hosting
Creative Commons License
GoDaddy
Look for:

loaded 2017-10-17 22:35:58 • last modified 2010-11-18 10:43:29
Privacy PolicyDisclaimer
• wx.awcolley.com is powered by PmWiki v.2002016 •
• all content (unless otherwise noted) © 2017 A W Colley